sensor_id;sensor_type;location;lat;lon;timestamp;P1;durP1;ratioP1;P2;durP2;ratioP2
58097;SDS011;43913;55.940;37.504;2022-12-29T00:01:28;5.20;;;2.28;;
58097;SDS011;43913;55.940;37.504;2022-12-29T00:03:54;2.75;;;2.00;;
58097;SDS011;43913;55.940;37.504;2022-12-29T00:06:20;2.33;;;1.80;;
58097;SDS011;43913;55.940;37.504;2022-12-29T00:08:46;4.13;;;2.20;;
58097;SDS011;43913;55.940;37.504;2022-12-29T00:11:12;4.85;;;1.60;;
58097;SDS011;43913;55.940;37.504;2022-12-29T00:13:42;4.20;;;1.80;;
58097;SDS011;43913;55.940;37.504;2022-12-29T00:16:33;3.75;;;1.90;;
58097;SDS011;43913;55.940;37.504;2022-12-29T00:18:59;2.50;;;1.50;;
58097;SDS011;43913;55.940;37.504;2022-12-29T00:21:25;3.60;;;2.15;;
58097;SDS011;43913;55.940;37.504;2022-12-29T00:24:13;3.72;;;1.52;;
58097;SDS011;43913;55.940;37.504;2022-12-29T00:29:47;3.55;;;1.33;;
58097;SDS011;43913;55.940;37.504;2022-12-29T00:32:32;2.05;;;1.27;;
58097;SDS011;43913;55.940;37.504;2022-12-29T00:35:20;2.10;;;1.20;;
58097;SDS011;43913;55.940;37.504;2022-12-29T00:38:13;2.70;;;1.30;;
58097;SDS011;43913;55.940;37.504;2022-12-29T00:40:58;1.65;;;1.55;;
58097;SDS011;43913;55.940;37.504;2022-12-29T00:43:42;3.33;;;1.95;;
58097;SDS011;43913;55.940;37.504;2022-12-29T00:46:26;2.78;;;1.52;;
58097;SDS011;43913;55.940;37.504;2022-12-29T00:48:52;1.70;;;1.33;;
58097;SDS011;43913;55.940;37.504;2022-12-29T00:51:36;3.05;;;1.50;;
58097;SDS011;43913;55.940;37.504;2022-12-29T00:54:02;1.63;;;1.27;;
58097;SDS011;43913;55.940;37.504;2022-12-29T00:56:28;4.95;;;1.77;;
58097;SDS011;43913;55.940;37.504;2022-12-29T00:58:53;2.50;;;1.20;;
58097;SDS011;43913;55.940;37.504;2022-12-29T01:01:19;5.18;;;1.80;;
58097;SDS011;43913;55.940;37.504;2022-12-29T01:03:45;4.57;;;2.00;;
58097;SDS011;43913;55.940;37.504;2022-12-29T01:06:10;3.08;;;1.58;;
58097;SDS011;43913;55.940;37.504;2022-12-29T01:08:36;11.40;;;3.80;;
58097;SDS011;43913;55.940;37.504;2022-12-29T01:11:04;17.23;;;5.55;;
58097;SDS011;43913;55.940;37.504;2022-12-29T01:13:34;15.73;;;7.05;;
58097;SDS011;43913;55.940;37.504;2022-12-29T01:16:00;13.10;;;5.78;;
58097;SDS011;43913;55.940;37.504;2022-12-29T01:18:26;16.13;;;5.63;;
58097;SDS011;43913;55.940;37.504;2022-12-29T01:21:03;13.93;;;4.88;;
58097;SDS011;43913;55.940;37.504;2022-12-29T01:23:30;8.75;;;4.32;;
58097;SDS011;43913;55.940;37.504;2022-12-29T01:25:57;10.38;;;5.15;;
58097;SDS011;43913;55.940;37.504;2022-12-29T01:28:23;9.85;;;3.17;;
58097;SDS011;43913;55.940;37.504;2022-12-29T01:30:49;8.90;;;3.95;;
58097;SDS011;43913;55.940;37.504;2022-12-29T01:33:14;6.43;;;2.92;;
58097;SDS011;43913;55.940;37.504;2022-12-29T01:35:40;8.55;;;3.03;;
58097;SDS011;43913;55.940;37.504;2022-12-29T01:38:06;9.02;;;3.35;;
58097;SDS011;43913;55.940;37.504;2022-12-29T01:40:33;6.18;;;2.72;;
58097;SDS011;43913;55.940;37.504;2022-12-29T01:42:59;4.60;;;2.40;;
58097;SDS011;43913;55.940;37.504;2022-12-29T01:45:24;6.50;;;3.17;;
58097;SDS011;43913;55.940;37.504;2022-12-29T01:50:39;4.22;;;2.33;;
58097;SDS011;43913;55.940;37.504;2022-12-29T01:53:10;6.65;;;2.72;;
58097;SDS011;43913;55.940;37.504;2022-12-29T01:55:43;7.93;;;2.40;;
58097;SDS011;43913;55.940;37.504;2022-12-29T01:58:11;5.70;;;2.30;;
58097;SDS011;43913;55.940;37.504;2022-12-29T02:00:37;13.20;;;3.13;;
58097;SDS011;43913;55.940;37.504;2022-12-29T02:03:03;5.88;;;2.63;;
58097;SDS011;43913;55.940;37.504;2022-12-29T02:05:38;7.32;;;2.00;;
58097;SDS011;43913;55.940;37.504;2022-12-29T02:08:11;5.75;;;2.97;;
58097;SDS011;43913;55.940;37.504;2022-12-29T02:10:38;3.53;;;2.03;;
58097;SDS011;43913;55.940;37.504;2022-12-29T02:13:04;5.80;;;2.95;;
58097;SDS011;43913;55.940;37.504;2022-12-29T02:18:55;3.50;;;2.10;;
58097;SDS011;43913;55.940;37.504;2022-12-29T02:24:09;4.07;;;2.17;;
58097;SDS011;43913;55.940;37.504;2022-12-29T02:40:25;4.30;;;2.03;;
58097;SDS011;43913;55.940;37.504;2022-12-29T02:43:21;8.93;;;2.55;;
58097;SDS011;43913;55.940;37.504;2022-12-29T02:48:25;3.60;;;1.90;;
58097;SDS011;43913;55.940;37.504;2022-12-29T02:51:04;4.90;;;1.98;;
58097;SDS011;43913;55.940;37.504;2022-12-29T02:53:57;5.30;;;2.40;;
58097;SDS011;43913;55.940;37.504;2022-12-29T02:56:41;5.05;;;2.10;;
58097;SDS011;43913;55.940;37.504;2022-12-29T02:59:07;5.22;;;2.38;;
58097;SDS011;43913;55.940;37.504;2022-12-29T03:07:25;3.83;;;2.00;;
58097;SDS011;43913;55.940;37.504;2022-12-29T03:15:10;4.07;;;2.33;;
58097;SDS011;43913;55.940;37.504;2022-12-29T03:17:58;6.38;;;2.42;;
58097;SDS011;43913;55.940;37.504;2022-12-29T03:20:31;4.93;;;2.03;;
58097;SDS011;43913;55.940;37.504;2022-12-29T03:23:03;5.05;;;2.40;;
58097;SDS011;43913;55.940;37.504;2022-12-29T03:25:35;5.07;;;3.10;;
58097;SDS011;43913;55.940;37.504;2022-12-29T03:28:09;4.95;;;2.30;;
58097;SDS011;43913;55.940;37.504;2022-12-29T03:30:41;7.00;;;2.88;;
58097;SDS011;43913;55.940;37.504;2022-12-29T03:33:10;5.95;;;2.08;;
58097;SDS011;43913;55.940;37.504;2022-12-29T03:35:38;6.60;;;2.65;;
58097;SDS011;43913;55.940;37.504;2022-12-29T03:40:45;8.80;;;2.85;;
58097;SDS011;43913;55.940;37.504;2022-12-29T03:43:13;5.90;;;2.97;;
58097;SDS011;43913;55.940;37.504;2022-12-29T03:45:40;5.45;;;2.72;;
58097;SDS011;43913;55.940;37.504;2022-12-29T03:48:06;7.55;;;2.35;;
58097;SDS011;43913;55.940;37.504;2022-12-29T03:50:32;4.47;;;2.38;;
58097;SDS011;43913;55.940;37.504;2022-12-29T03:52:58;4.20;;;2.25;;
58097;SDS011;43913;55.940;37.504;2022-12-29T03:55:25;5.93;;;2.35;;
58097;SDS011;43913;55.940;37.504;2022-12-29T03:57:52;8.88;;;2.35;;
58097;SDS011;43913;55.940;37.504;2022-12-29T04:00:26;3.95;;;2.28;;
58097;SDS011;43913;55.940;37.504;2022-12-29T04:02:53;5.60;;;2.55;;
58097;SDS011;43913;55.940;37.504;2022-12-29T04:05:21;4.05;;;2.30;;
58097;SDS011;43913;55.940;37.504;2022-12-29T04:07:49;7.18;;;2.72;;
58097;SDS011;43913;55.940;37.504;2022-12-29T04:10:15;5.80;;;2.13;;
58097;SDS011;43913;55.940;37.504;2022-12-29T04:12:42;4.88;;;2.25;;
58097;SDS011;43913;55.940;37.504;2022-12-29T04:15:09;3.03;;;2.13;;
58097;SDS011;43913;55.940;37.504;2022-12-29T04:17:35;5.47;;;2.47;;
58097;SDS011;43913;55.940;37.504;2022-12-29T04:20:02;6.53;;;2.55;;
58097;SDS011;43913;55.940;37.504;2022-12-29T04:22:46;6.45;;;2.60;;
58097;SDS011;43913;55.940;37.504;2022-12-29T04:25:12;4.25;;;2.72;;
58097;SDS011;43913;55.940;37.504;2022-12-29T04:27:38;6.30;;;2.42;;
58097;SDS011;43913;55.940;37.504;2022-12-29T04:30:19;6.72;;;2.72;;
58097;SDS011;43913;55.940;37.504;2022-12-29T04:33:08;6.47;;;2.30;;
58097;SDS011;43913;55.940;37.504;2022-12-29T04:35:33;5.70;;;2.08;;
58097;SDS011;43913;55.940;37.504;2022-12-29T04:37:59;3.30;;;2.35;;
58097;SDS011;43913;55.940;37.504;2022-12-29T04:40:25;6.60;;;2.55;;
58097;SDS011;43913;55.940;37.504;2022-12-29T04:42:51;7.47;;;2.55;;
58097;SDS011;43913;55.940;37.504;2022-12-29T04:45:18;8.07;;;2.90;;
58097;SDS011;43913;55.940;37.504;2022-12-29T04:48:08;7.70;;;3.05;;
58097;SDS011;43913;55.940;37.504;2022-12-29T04:53:22;8.23;;;3.70;;
58097;SDS011;43913;55.940;37.504;2022-12-29T04:55:49;10.02;;;3.75;;
58097;SDS011;43913;55.940;37.504;2022-12-29T04:58:16;6.32;;;3.60;;
58097;SDS011;43913;55.940;37.504;2022-12-29T05:00:42;8.23;;;3.00;;
58097;SDS011;43913;55.940;37.504;2022-12-29T05:03:08;4.10;;;2.80;;
58097;SDS011;43913;55.940;37.504;2022-12-29T05:05:37;7.55;;;3.35;;
58097;SDS011;43913;55.940;37.504;2022-12-29T05:08:02;5.68;;;3.15;;
58097;SDS011;43913;55.940;37.504;2022-12-29T05:10:29;5.85;;;2.55;;
58097;SDS011;43913;55.940;37.504;2022-12-29T05:12:58;5.82;;;2.90;;
58097;SDS011;43913;55.940;37.504;2022-12-29T05:15:25;6.13;;;2.75;;
58097;SDS011;43913;55.940;37.504;2022-12-29T05:17:50;6.82;;;2.38;;
58097;SDS011;43913;55.940;37.504;2022-12-29T05:20:17;5.13;;;2.17;;
58097;SDS011;43913;55.940;37.504;2022-12-29T05:22:43;5.35;;;3.22;;
58097;SDS011;43913;55.940;37.504;2022-12-29T05:25:09;5.70;;;2.08;;
58097;SDS011;43913;55.940;37.504;2022-12-29T05:27:48;6.60;;;2.65;;
58097;SDS011;43913;55.940;37.504;2022-12-29T05:30:32;7.88;;;2.65;;
58097;SDS011;43913;55.940;37.504;2022-12-29T05:32:57;8.48;;;3.30;;
58097;SDS011;43913;55.940;37.504;2022-12-29T05:35:23;5.22;;;2.45;;
58097;SDS011;43913;55.940;37.504;2022-12-29T05:37:49;6.07;;;2.10;;
58097;SDS011;43913;55.940;37.504;2022-12-29T05:40:14;7.28;;;3.95;;
58097;SDS011;43913;55.940;37.504;2022-12-29T05:42:41;4.68;;;2.55;;
58097;SDS011;43913;55.940;37.504;2022-12-29T05:45:31;6.18;;;2.75;;
58097;SDS011;43913;55.940;37.504;2022-12-29T05:48:10;8.57;;;3.28;;
58097;SDS011;43913;55.940;37.504;2022-12-29T05:50:50;11.10;;;3.13;;
58097;SDS011;43913;55.940;37.504;2022-12-29T05:53:21;5.25;;;2.40;;
58097;SDS011;43913;55.940;37.504;2022-12-29T05:55:47;4.53;;;2.38;;
58097;SDS011;43913;55.940;37.504;2022-12-29T05:58:13;3.92;;;2.38;;
58097;SDS011;43913;55.940;37.504;2022-12-29T06:00:40;7.40;;;2.78;;
58097;SDS011;43913;55.940;37.504;2022-12-29T06:03:09;5.93;;;3.17;;
58097;SDS011;43913;55.940;37.504;2022-12-29T06:05:35;7.55;;;3.22;;
58097;SDS011;43913;55.940;37.504;2022-12-29T06:08:01;6.35;;;2.75;;
58097;SDS011;43913;55.940;37.504;2022-12-29T06:10:26;9.00;;;3.20;;
58097;SDS011;43913;55.940;37.504;2022-12-29T06:13:03;4.57;;;3.17;;
58097;SDS011;43913;55.940;37.504;2022-12-29T06:15:33;5.47;;;2.70;;
58097;SDS011;43913;55.940;37.504;2022-12-29T06:17:59;7.85;;;2.65;;
58097;SDS011;43913;55.940;37.504;2022-12-29T06:20:25;3.90;;;2.83;;
58097;SDS011;43913;55.940;37.504;2022-12-29T06:22:51;3.30;;;2.13;;
58097;SDS011;43913;55.940;37.504;2022-12-29T06:25:17;4.10;;;2.42;;
58097;SDS011;43913;55.940;37.504;2022-12-29T06:27:43;5.18;;;3.17;;
58097;SDS011;43913;55.940;37.504;2022-12-29T06:30:09;5.72;;;2.47;;
58097;SDS011;43913;55.940;37.504;2022-12-29T06:32:37;4.40;;;2.53;;
58097;SDS011;43913;55.940;37.504;2022-12-29T06:35:04;6.78;;;3.00;;
58097;SDS011;43913;55.940;37.504;2022-12-29T06:37:33;4.53;;;2.47;;
58097;SDS011;43913;55.940;37.504;2022-12-29T06:40:00;4.80;;;2.63;;
58097;SDS011;43913;55.940;37.504;2022-12-29T06:42:33;8.15;;;2.83;;
58097;SDS011;43913;55.940;37.504;2022-12-29T06:45:27;6.30;;;3.17;;
58097;SDS011;43913;55.940;37.504;2022-12-29T06:47:53;6.35;;;3.50;;
58097;SDS011;43913;55.940;37.504;2022-12-29T06:50:19;6.65;;;3.00;;
58097;SDS011;43913;55.940;37.504;2022-12-29T06:52:44;8.60;;;3.47;;
58097;SDS011;43913;55.940;37.504;2022-12-29T06:55:10;6.57;;;3.13;;
58097;SDS011;43913;55.940;37.504;2022-12-29T06:57:36;7.65;;;4.22;;
58097;SDS011;43913;55.940;37.504;2022-12-29T07:00:03;9.30;;;3.47;;
58097;SDS011;43913;55.940;37.504;2022-12-29T07:02:30;6.07;;;3.20;;
58097;SDS011;43913;55.940;37.504;2022-12-29T07:04:55;8.30;;;4.10;;
58097;SDS011;43913;55.940;37.504;2022-12-29T07:07:21;8.88;;;3.55;;
58097;SDS011;43913;55.940;37.504;2022-12-29T07:09:47;6.13;;;3.38;;
58097;SDS011;43913;55.940;37.504;2022-12-29T07:12:12;5.35;;;3.75;;
58097;SDS011;43913;55.940;37.504;2022-12-29T07:14:38;5.43;;;3.25;;
58097;SDS011;43913;55.940;37.504;2022-12-29T07:17:04;4.60;;;3.55;;
58097;SDS011;43913;55.940;37.504;2022-12-29T07:19:31;7.57;;;3.80;;
58097;SDS011;43913;55.940;37.504;2022-12-29T07:21:58;10.27;;;5.00;;
58097;SDS011;43913;55.940;37.504;2022-12-29T07:24:24;9.77;;;5.22;;
58097;SDS011;43913;55.940;37.504;2022-12-29T07:26:51;8.73;;;5.90;;
58097;SDS011;43913;55.940;37.504;2022-12-29T07:29:17;12.82;;;6.20;;
58097;SDS011;43913;55.940;37.504;2022-12-29T07:31:43;8.80;;;5.30;;
58097;SDS011;43913;55.940;37.504;2022-12-29T07:34:09;10.18;;;5.00;;
58097;SDS011;43913;55.940;37.504;2022-12-29T07:36:34;10.65;;;4.63;;
58097;SDS011;43913;55.940;37.504;2022-12-29T07:39:00;6.10;;;4.57;;
58097;SDS011;43913;55.940;37.504;2022-12-29T07:41:26;6.82;;;4.35;;
58097;SDS011;43913;55.940;37.504;2022-12-29T07:43:52;9.27;;;4.82;;
58097;SDS011;43913;55.940;37.504;2022-12-29T07:46:55;9.02;;;3.92;;
58097;SDS011;43913;55.940;37.504;2022-12-29T07:49:21;8.23;;;4.43;;
58097;SDS011;43913;55.940;37.504;2022-12-29T07:51:47;9.55;;;3.65;;
58097;SDS011;43913;55.940;37.504;2022-12-29T07:54:13;6.22;;;3.95;;
58097;SDS011;43913;55.940;37.504;2022-12-29T07:56:38;6.88;;;4.63;;
58097;SDS011;43913;55.940;37.504;2022-12-29T07:59:04;11.80;;;5.22;;
58097;SDS011;43913;55.940;37.504;2022-12-29T08:01:30;7.65;;;4.28;;
58097;SDS011;43913;55.940;37.504;2022-12-29T08:03:55;7.35;;;4.57;;
58097;SDS011;43913;55.940;37.504;2022-12-29T08:06:21;8.32;;;3.72;;
58097;SDS011;43913;55.940;37.504;2022-12-29T08:08:47;6.13;;;4.40;;
58097;SDS011;43913;55.940;37.504;2022-12-29T08:11:13;7.82;;;4.38;;
58097;SDS011;43913;55.940;37.504;2022-12-29T08:13:39;8.10;;;3.78;;
58097;SDS011;43913;55.940;37.504;2022-12-29T08:16:04;5.65;;;4.05;;
58097;SDS011;43913;55.940;37.504;2022-12-29T08:18:33;5.85;;;4.22;;
58097;SDS011;43913;55.940;37.504;2022-12-29T08:21:05;7.78;;;4.10;;
58097;SDS011;43913;55.940;37.504;2022-12-29T08:23:31;7.32;;;4.55;;
58097;SDS011;43913;55.940;37.504;2022-12-29T08:26:00;7.30;;;4.60;;
58097;SDS011;43913;55.940;37.504;2022-12-29T08:28:28;7.03;;;4.82;;
58097;SDS011;43913;55.940;37.504;2022-12-29T08:30:54;8.00;;;4.03;;
58097;SDS011;43913;55.940;37.504;2022-12-29T08:33:23;6.70;;;4.20;;
58097;SDS011;43913;55.940;37.504;2022-12-29T08:35:48;8.43;;;5.07;;
58097;SDS011;43913;55.940;37.504;2022-12-29T08:38:14;11.80;;;6.20;;
58097;SDS011;43913;55.940;37.504;2022-12-29T08:40:40;8.95;;;5.60;;
58097;SDS011;43913;55.940;37.504;2022-12-29T08:43:06;6.00;;;5.05;;
58097;SDS011;43913;55.940;37.504;2022-12-29T08:45:31;7.47;;;4.25;;
58097;SDS011;43913;55.940;37.504;2022-12-29T08:47:57;5.03;;;4.40;;
58097;SDS011;43913;55.940;37.504;2022-12-29T08:50:23;6.85;;;4.88;;
58097;SDS011;43913;55.940;37.504;2022-12-29T08:52:48;8.13;;;4.32;;
58097;SDS011;43913;55.940;37.504;2022-12-29T08:55:16;8.05;;;4.32;;
58097;SDS011;43913;55.940;37.504;2022-12-29T08:57:42;13.35;;;4.97;;
58097;SDS011;43913;55.940;37.504;2022-12-29T09:00:26;7.10;;;4.40;;
58097;SDS011;43913;55.940;37.504;2022-12-29T09:02:52;7.43;;;4.70;;
58097;SDS011;43913;55.940;37.504;2022-12-29T09:05:18;5.32;;;4.07;;
58097;SDS011;43913;55.940;37.504;2022-12-29T09:07:43;9.35;;;4.60;;
58097;SDS011;43913;55.940;37.504;2022-12-29T09:10:09;7.32;;;4.60;;
58097;SDS011;43913;55.940;37.504;2022-12-29T09:12:35;7.50;;;4.70;;
58097;SDS011;43913;55.940;37.504;2022-12-29T09:15:00;8.68;;;5.05;;
58097;SDS011;43913;55.940;37.504;2022-12-29T09:17:27;6.90;;;4.00;;
58097;SDS011;43913;55.940;37.504;2022-12-29T09:20:12;9.32;;;4.30;;
58097;SDS011;43913;55.940;37.504;2022-12-29T09:22:38;7.47;;;4.30;;
58097;SDS011;43913;55.940;37.504;2022-12-29T09:25:04;7.55;;;4.47;;
58097;SDS011;43913;55.940;37.504;2022-12-29T09:27:30;6.70;;;4.15;;
58097;SDS011;43913;55.940;37.504;2022-12-29T09:29:56;9.32;;;4.30;;
58097;SDS011;43913;55.940;37.504;2022-12-29T09:32:22;6.85;;;4.72;;
58097;SDS011;43913;55.940;37.504;2022-12-29T09:34:47;7.07;;;4.28;;
58097;SDS011;43913;55.940;37.504;2022-12-29T09:37:13;9.68;;;5.13;;
58097;SDS011;43913;55.940;37.504;2022-12-29T09:39:39;7.38;;;4.82;;
58097;SDS011;43913;55.940;37.504;2022-12-29T09:47:25;6.57;;;5.07;;
58097;SDS011;43913;55.940;37.504;2022-12-29T09:50:02;6.03;;;4.38;;
58097;SDS011;43913;55.940;37.504;2022-12-29T09:52:31;8.95;;;5.88;;
58097;SDS011;43913;55.940;37.504;2022-12-29T09:55:23;6.60;;;4.90;;
58097;SDS011;43913;55.940;37.504;2022-12-29T09:57:56;8.95;;;5.60;;
58097;SDS011;43913;55.940;37.504;2022-12-29T10:00:38;10.27;;;5.18;;
58097;SDS011;43913;55.940;37.504;2022-12-29T10:03:18;6.93;;;4.50;;
58097;SDS011;43913;55.940;37.504;2022-12-29T10:14:04;8.13;;;5.43;;
58097;SDS011;43913;55.940;37.504;2022-12-29T10:16:57;8.65;;;5.00;;
58097;SDS011;43913;55.940;37.504;2022-12-29T10:25:31;12.20;;;6.47;;
58097;SDS011;43913;55.940;37.504;2022-12-29T10:28:01;8.95;;;5.53;;
58097;SDS011;43913;55.940;37.504;2022-12-29T10:30:42;11.65;;;5.75;;
58097;SDS011;43913;55.940;37.504;2022-12-29T10:33:10;10.82;;;6.18;;
58097;SDS011;43913;55.940;37.504;2022-12-29T10:35:38;11.18;;;5.55;;
58097;SDS011;43913;55.940;37.504;2022-12-29T10:41:15;31.38;;;9.65;;
58097;SDS011;43913;55.940;37.504;2022-12-29T10:43:47;16.63;;;7.50;;
58097;SDS011;43913;55.940;37.504;2022-12-29T10:46:18;14.43;;;6.30;;
58097;SDS011;43913;55.940;37.504;2022-12-29T10:48:46;14.00;;;5.53;;
58097;SDS011;43913;55.940;37.504;2022-12-29T10:51:21;15.32;;;6.68;;
58097;SDS011;43913;55.940;37.504;2022-12-29T10:53:55;10.27;;;5.65;;
58097;SDS011;43913;55.940;37.504;2022-12-29T10:58:54;12.88;;;6.82;;
58097;SDS011;43913;55.940;37.504;2022-12-29T11:01:22;12.70;;;6.93;;
58097;SDS011;43913;55.940;37.504;2022-12-29T11:06:56;9.13;;;5.55;;
58097;SDS011;43913;55.940;37.504;2022-12-29T11:09:29;8.90;;;5.35;;
58097;SDS011;43913;55.940;37.504;2022-12-29T11:11:56;5.75;;;5.25;;
58097;SDS011;43913;55.940;37.504;2022-12-29T11:14:26;8.55;;;4.95;;
58097;SDS011;43913;55.940;37.504;2022-12-29T11:16:57;8.02;;;5.65;;
58097;SDS011;43913;55.940;37.504;2022-12-29T11:19:25;9.75;;;6.72;;
58097;SDS011;43913;55.940;37.504;2022-12-29T11:22:11;9.95;;;5.85;;
58097;SDS011;43913;55.940;37.504;2022-12-29T11:24:48;8.63;;;5.90;;
58097;SDS011;43913;55.940;37.504;2022-12-29T11:27:16;11.90;;;6.47;;
58097;SDS011;43913;55.940;37.504;2022-12-29T11:29:48;10.77;;;6.95;;
58097;SDS011;43913;55.940;37.504;2022-12-29T11:32:19;12.13;;;8.35;;
58097;SDS011;43913;55.940;37.504;2022-12-29T11:34:49;10.75;;;8.55;;
58097;SDS011;43913;55.940;37.504;2022-12-29T11:37:16;12.63;;;8.35;;
58097;SDS011;43913;55.940;37.504;2022-12-29T11:39:56;16.27;;;8.82;;
58097;SDS011;43913;55.940;37.504;2022-12-29T11:42:49;12.65;;;8.30;;
58097;SDS011;43913;55.940;37.504;2022-12-29T11:47:53;14.23;;;8.95;;
58097;SDS011;43913;55.940;37.504;2022-12-29T11:50:22;14.98;;;9.38;;
58097;SDS011;43913;55.940;37.504;2022-12-29T11:52:50;12.30;;;9.88;;
58097;SDS011;43913;55.940;37.504;2022-12-29T11:55:26;13.95;;;9.02;;
58097;SDS011;43913;55.940;37.504;2022-12-29T11:57:52;14.27;;;9.15;;
58097;SDS011;43913;55.940;37.504;2022-12-29T12:00:20;14.55;;;9.90;;
58097;SDS011;43913;55.940;37.504;2022-12-29T12:02:54;11.93;;;8.43;;
58097;SDS011;43913;55.940;37.504;2022-12-29T12:05:24;12.13;;;8.68;;
58097;SDS011;43913;55.940;37.504;2022-12-29T12:13:58;13.60;;;9.10;;
58097;SDS011;43913;55.940;37.504;2022-12-29T12:16:34;12.73;;;8.15;;
58097;SDS011;43913;55.940;37.504;2022-12-29T12:22:22;13.82;;;7.85;;
58097;SDS011;43913;55.940;37.504;2022-12-29T12:24:58;11.13;;;7.30;;
58097;SDS011;43913;55.940;37.504;2022-12-29T12:27:36;12.20;;;8.90;;
58097;SDS011;43913;55.940;37.504;2022-12-29T12:30:15;15.57;;;8.65;;
58097;SDS011;43913;55.940;37.504;2022-12-29T12:33:06;9.73;;;8.30;;
58097;SDS011;43913;55.940;37.504;2022-12-29T13:06:26;12.05;;;8.15;;
58097;SDS011;43913;55.940;37.504;2022-12-29T13:12:11;15.02;;;10.15;;
58097;SDS011;43913;55.940;37.504;2022-12-29T13:14:59;17.83;;;10.15;;
58097;SDS011;43913;55.940;37.504;2022-12-29T13:17:51;13.38;;;9.48;;
58097;SDS011;43913;55.940;37.504;2022-12-29T13:25:50;15.30;;;9.20;;
58097;SDS011;43913;55.940;37.504;2022-12-29T13:28:29;12.93;;;7.97;;
58097;SDS011;43913;55.940;37.504;2022-12-29T13:38:45;12.57;;;9.07;;
58097;SDS011;43913;55.940;37.504;2022-12-29T13:41:35;15.25;;;10.27;;
58097;SDS011;43913;55.940;37.504;2022-12-29T13:44:03;16.52;;;10.23;;
58097;SDS011;43913;55.940;37.504;2022-12-29T13:46:33;15.13;;;9.60;;
58097;SDS011;43913;55.940;37.504;2022-12-29T13:49:10;13.40;;;9.65;;
58097;SDS011;43913;55.940;37.504;2022-12-29T13:51:43;14.90;;;9.65;;
58097;SDS011;43913;55.940;37.504;2022-12-29T13:54:56;15.23;;;9.48;;
58097;SDS011;43913;55.940;37.504;2022-12-29T14:00:16;21.48;;;9.73;;
58097;SDS011;43913;55.940;37.504;2022-12-29T14:02:52;17.30;;;9.77;;
58097;SDS011;43913;55.940;37.504;2022-12-29T14:05:29;11.98;;;8.85;;
58097;SDS011;43913;55.940;37.504;2022-12-29T14:08:03;17.83;;;9.20;;
58097;SDS011;43913;55.940;37.504;2022-12-29T14:13:17;16.08;;;8.95;;
58097;SDS011;43913;55.940;37.504;2022-12-29T14:15:46;15.00;;;9.50;;
58097;SDS011;43913;55.940;37.504;2022-12-29T14:18:20;15.07;;;9.75;;
58097;SDS011;43913;55.940;37.504;2022-12-29T14:28:37;17.15;;;10.98;;
58097;SDS011;43913;55.940;37.504;2022-12-29T14:33:39;15.70;;;10.43;;
58097;SDS011;43913;55.940;37.504;2022-12-29T14:44:52;13.88;;;10.48;;
58097;SDS011;43913;55.940;37.504;2022-12-29T14:49:52;18.33;;;9.95;;
58097;SDS011;43913;55.940;37.504;2022-12-29T14:52:20;20.35;;;12.00;;
58097;SDS011;43913;55.940;37.504;2022-12-29T14:54:49;20.55;;;10.93;;
58097;SDS011;43913;55.940;37.504;2022-12-29T14:57:27;19.27;;;11.13;;
58097;SDS011;43913;55.940;37.504;2022-12-29T15:00:00;16.75;;;10.32;;
58097;SDS011;43913;55.940;37.504;2022-12-29T15:02:40;15.63;;;11.25;;
58097;SDS011;43913;55.940;37.504;2022-12-29T15:05:19;16.05;;;10.90;;
58097;SDS011;43913;55.940;37.504;2022-12-29T15:07:50;16.67;;;11.35;;
58097;SDS011;43913;55.940;37.504;2022-12-29T15:10:16;20.33;;;11.95;;
58097;SDS011;43913;55.940;37.504;2022-12-29T15:12:54;18.42;;;11.25;;
58097;SDS011;43913;55.940;37.504;2022-12-29T15:15:27;17.05;;;10.25;;
58097;SDS011;43913;55.940;37.504;2022-12-29T15:17:55;19.40;;;11.27;;
58097;SDS011;43913;55.940;37.504;2022-12-29T15:23:18;19.40;;;11.77;;
58097;SDS011;43913;55.940;37.504;2022-12-29T15:25:51;18.80;;;11.93;;
58097;SDS011;43913;55.940;37.504;2022-12-29T15:28:19;22.60;;;12.77;;
58097;SDS011;43913;55.940;37.504;2022-12-29T15:30:52;18.60;;;12.30;;
58097;SDS011;43913;55.940;37.504;2022-12-29T15:33:23;21.05;;;12.70;;
58097;SDS011;43913;55.940;37.504;2022-12-29T15:35:50;18.92;;;11.70;;
58097;SDS011;43913;55.940;37.504;2022-12-29T15:38:24;21.15;;;13.50;;
58097;SDS011;43913;55.940;37.504;2022-12-29T15:40:56;25.17;;;12.70;;
58097;SDS011;43913;55.940;37.504;2022-12-29T15:43:43;21.67;;;14.18;;
58097;SDS011;43913;55.940;37.504;2022-12-29T15:46:16;20.58;;;13.02;;
58097;SDS011;43913;55.940;37.504;2022-12-29T15:48:42;21.23;;;13.48;;
58097;SDS011;43913;55.940;37.504;2022-12-29T15:51:21;15.43;;;12.00;;
58097;SDS011;43913;55.940;37.504;2022-12-29T15:53:53;21.65;;;13.05;;
58097;SDS011;43913;55.940;37.504;2022-12-29T15:56:19;19.83;;;13.02;;
58097;SDS011;43913;55.940;37.504;2022-12-29T15:58:46;20.80;;;12.07;;
58097;SDS011;43913;55.940;37.504;2022-12-29T16:01:30;21.85;;;12.93;;
58097;SDS011;43913;55.940;37.504;2022-12-29T16:03:57;18.70;;;12.35;;
58097;SDS011;43913;55.940;37.504;2022-12-29T16:06:31;20.13;;;13.18;;
58097;SDS011;43913;55.940;37.504;2022-12-29T16:09:05;26.70;;;14.73;;
58097;SDS011;43913;55.940;37.504;2022-12-29T16:11:37;19.67;;;13.02;;
58097;SDS011;43913;55.940;37.504;2022-12-29T16:14:14;22.20;;;14.02;;
58097;SDS011;43913;55.940;37.504;2022-12-29T16:16:43;20.25;;;13.25;;
58097;SDS011;43913;55.940;37.504;2022-12-29T16:19:12;22.63;;;13.05;;
58097;SDS011;43913;55.940;37.504;2022-12-29T16:21:40;14.88;;;9.13;;
58097;SDS011;43913;55.940;37.504;2022-12-29T16:24:07;19.92;;;12.57;;
58097;SDS011;43913;55.940;37.504;2022-12-29T16:26:38;18.50;;;11.73;;
58097;SDS011;43913;55.940;37.504;2022-12-29T16:29:05;20.42;;;12.25;;
58097;SDS011;43913;55.940;37.504;2022-12-29T16:33:58;20.48;;;12.27;;
58097;SDS011;43913;55.940;37.504;2022-12-29T16:36:40;20.55;;;12.68;;
58097;SDS011;43913;55.940;37.504;2022-12-29T16:39:34;25.75;;;14.32;;
58097;SDS011;43913;55.940;37.504;2022-12-29T16:45:33;21.75;;;12.57;;
58097;SDS011;43913;55.940;37.504;2022-12-29T16:50:32;23.38;;;13.60;;
58097;SDS011;43913;55.940;37.504;2022-12-29T16:52:59;19.33;;;12.93;;
58097;SDS011;43913;55.940;37.504;2022-12-29T16:55:26;25.27;;;12.98;;
58097;SDS011;43913;55.940;37.504;2022-12-29T16:57:52;17.90;;;12.60;;
58097;SDS011;43913;55.940;37.504;2022-12-29T17:00:22;22.70;;;12.65;;
58097;SDS011;43913;55.940;37.504;2022-12-29T17:02:51;18.38;;;11.43;;
58097;SDS011;43913;55.940;37.504;2022-12-29T17:05:20;18.73;;;12.20;;
58097;SDS011;43913;55.940;37.504;2022-12-29T17:07:46;24.23;;;13.25;;
58097;SDS011;43913;55.940;37.504;2022-12-29T17:10:12;20.83;;;12.35;;
58097;SDS011;43913;55.940;37.504;2022-12-29T17:12:42;20.50;;;12.35;;
58097;SDS011;43913;55.940;37.504;2022-12-29T17:15:13;20.88;;;12.52;;
58097;SDS011;43913;55.940;37.504;2022-12-29T17:17:51;17.63;;;12.27;;
58097;SDS011;43913;55.940;37.504;2022-12-29T17:20:23;22.30;;;13.50;;
58097;SDS011;43913;55.940;37.504;2022-12-29T17:22:51;20.98;;;13.40;;
58097;SDS011;43913;55.940;37.504;2022-12-29T17:25:20;22.52;;;13.80;;
58097;SDS011;43913;55.940;37.504;2022-12-29T17:27:59;25.92;;;14.30;;
58097;SDS011;43913;55.940;37.504;2022-12-29T17:30:26;22.67;;;13.90;;
58097;SDS011;43913;55.940;37.504;2022-12-29T17:32:53;22.08;;;14.43;;
58097;SDS011;43913;55.940;37.504;2022-12-29T17:35:22;23.00;;;13.35;;
58097;SDS011;43913;55.940;37.504;2022-12-29T17:37:48;26.23;;;15.35;;